createdAt,value
2018-04-02T00:00:39.164Z,20.7
2018-04-02T00:01:28.923Z,20.7
2018-04-02T00:02:18.776Z,20.7
2018-04-02T00:03:09.899Z,20.7
2018-04-02T00:03:59.774Z,20.7
2018-04-02T00:04:50.491Z,20.7
2018-04-02T00:05:39.665Z,20.7
2018-04-02T00:06:30.458Z,20.7
2018-04-02T00:07:18.845Z,20.7
2018-04-02T00:08:10.769Z,20.7
2018-04-02T00:09:00.368Z,20.7
2018-04-02T00:09:50.685Z,20.7
2018-04-02T00:10:41.045Z,20.7
2018-04-02T00:11:31.085Z,20.7
2018-04-02T00:12:20.511Z,20.7
2018-04-02T00:13:11.178Z,20.8
2018-04-02T00:14:00.791Z,20.7
2018-04-02T00:14:50.453Z,20.8
2018-04-02T00:15:41.340Z,20.7
2018-04-02T00:16:31.703Z,20.8
2018-04-02T00:17:21.323Z,20.7
2018-04-02T00:18:11.078Z,20.8
2018-04-02T00:19:01.065Z,20.8
2018-04-02T00:19:51.531Z,20.8
2018-04-02T00:20:41.114Z,20.7
2018-04-02T00:21:31.037Z,20.8
2018-04-02T00:22:21.515Z,20.8
2018-04-02T00:23:11.648Z,20.8
2018-04-02T00:24:01.723Z,20.8
2018-04-02T00:24:50.992Z,20.8
2018-04-02T00:25:41.662Z,20.8
2018-04-02T00:26:31.605Z,20.8
2018-04-02T00:27:21.470Z,20.8
2018-04-02T00:28:11.665Z,20.8
2018-04-02T00:29:02.071Z,20.8
2018-04-02T00:29:52.077Z,20.8
2018-04-02T00:30:41.502Z,20.8
2018-04-02T00:31:32.368Z,20.8
2018-04-02T00:32:21.748Z,20.8
2018-04-02T00:33:11.519Z,20.8
2018-04-02T00:34:02.644Z,20.8
2018-04-02T00:34:52.031Z,20.8
2018-04-02T00:35:43.019Z,20.8
2018-04-02T00:36:33.079Z,20.8
2018-04-02T00:37:23.429Z,20.8
2018-04-02T00:38:13.478Z,20.8
2018-04-02T00:39:03.841Z,20.8
2018-04-02T00:39:53.363Z,20.8
2018-04-02T00:40:42.826Z,20.8
2018-04-02T00:41:32.682Z,20.8
2018-04-02T00:42:22.807Z,20.8
2018-04-02T00:43:13.411Z,20.8
2018-04-02T00:44:03.182Z,20.8
2018-04-02T00:44:53.502Z,20.8
2018-04-02T00:45:43.379Z,20.8
2018-04-02T00:46:33.978Z,20.8
2018-04-02T00:47:24.496Z,20.8
2018-04-02T00:48:14.243Z,20.8
2018-04-02T00:49:04.324Z,20.8
2018-04-02T00:49:54.041Z,20.8
2018-04-02T00:50:44.474Z,20.8
2018-04-02T00:51:33.898Z,20.8
2018-04-02T00:52:24.219Z,20.8
2018-04-02T00:53:14.631Z,20.8
2018-04-02T00:54:04.945Z,20.8
2018-04-02T00:54:55.030Z,20.8
2018-04-02T00:55:44.231Z,20.8
2018-04-02T00:56:35.082Z,20.8
2018-04-02T00:57:23.413Z,20.8
2018-04-02T00:58:14.283Z,20.8
2018-04-02T00:59:04.496Z,20.8
2018-04-02T00:59:54.611Z,20.8
2018-04-02T01:00:43.806Z,20.8
2018-04-02T01:01:34.615Z,20.8
2018-04-02T01:02:24.393Z,20.8
2018-04-02T01:03:14.205Z,20.8
2018-04-02T01:04:03.557Z,20.8
2018-04-02T01:04:54.290Z,20.8
2018-04-02T01:05:44.340Z,20.8
2018-04-02T01:06:34.800Z,20.8
2018-04-02T01:07:24.148Z,20.8
2018-04-02T01:08:15.205Z,20.8
2018-04-02T01:09:04.412Z,20.8
2018-04-02T01:09:55.158Z,20.8
2018-04-02T01:10:45.514Z,20.8
2018-04-02T01:11:34.793Z,20.8
2018-04-02T01:12:25.592Z,20.9
2018-04-02T01:13:14.772Z,20.9
2018-04-02T01:14:05.364Z,20.9
2018-04-02T01:14:55.419Z,20.9
2018-04-02T01:15:46.037Z,20.9
2018-04-02T01:16:35.249Z,20.9
2018-04-02T01:17:25.219Z,20.8
2018-04-02T01:18:15.750Z,20.9
2018-04-02T01:19:05.712Z,20.8
2018-04-02T01:19:55.576Z,20.8
2018-04-02T01:20:45.007Z,20.8
2018-04-02T01:21:35.526Z,20.8
2018-04-02T01:22:25.899Z,20.9
2018-04-02T01:23:15.449Z,20.8
2018-04-02T01:24:05.197Z,20.8
2018-04-02T01:24:56.292Z,20.8
2018-04-02T01:25:46.407Z,20.8
2018-04-02T01:26:35.757Z,20.8
2018-04-02T01:27:26.049Z,20.9
2018-04-02T01:28:15.313Z,20.8
2018-04-02T01:29:06.084Z,20.8
2018-04-02T01:29:56.410Z,20.8
2018-04-02T01:30:46.561Z,20.9
2018-04-02T01:31:35.916Z,20.8
2018-04-02T01:32:26.916Z,20.9
2018-04-02T01:33:15.841Z,20.8
2018-04-02T01:34:06.039Z,20.9
2018-04-02T01:34:57.222Z,20.9
2018-04-02T01:35:46.861Z,20.9
2018-04-02T01:36:37.246Z,20.9
2018-04-02T01:37:26.761Z,20.8
2018-04-02T01:38:16.736Z,20.9
2018-04-02T01:39:06.968Z,20.9
2018-04-02T01:39:57.130Z,20.9
2018-04-02T01:40:47.365Z,20.9
2018-04-02T01:41:37.402Z,20.9
2018-04-02T01:42:27.889Z,20.9
2018-04-02T01:43:17.153Z,20.9
2018-04-02T01:44:07.242Z,20.9
2018-04-02T01:44:57.008Z,20.9
2018-04-02T01:45:47.270Z,20.9
2018-04-02T01:46:37.434Z,20.9
2018-04-02T01:47:27.319Z,20.9
2018-04-02T01:48:18.295Z,20.9
2018-04-02T01:49:08.652Z,20.9
2018-04-02T01:49:58.973Z,20.9
2018-04-02T01:50:48.843Z,20.9
2018-04-02T01:51:38.569Z,20.9
2018-04-02T01:52:28.882Z,20.9
2018-04-02T01:53:18.380Z,20.9
2018-04-02T01:54:08.510Z,20.9
2018-04-02T01:54:58.352Z,20.9
2018-04-02T01:55:48.117Z,20.9
2018-04-02T01:56:38.659Z,20.9
2018-04-02T01:57:27.443Z,20.9
2018-04-02T01:58:18.670Z,20.9
2018-04-02T01:59:07.499Z,20.9
2018-04-02T01:59:58.216Z,20.9
2018-04-02T02:00:47.772Z,20.9
2018-04-02T02:01:38.847Z,20.9
2018-04-02T02:02:28.487Z,20.9
2018-04-02T02:03:19.117Z,20.9
2018-04-02T02:04:08.224Z,20.9
2018-04-02T02:04:58.432Z,20.9
2018-04-02T02:05:48.351Z,20.9
2018-04-02T02:06:39.798Z,20.9
2018-04-02T02:07:28.352Z,20.9
2018-04-02T02:08:18.904Z,20.9
2018-04-02T02:09:08.869Z,20.9
2018-04-02T02:09:58.442Z,20.9
2018-04-02T02:10:49.668Z,20.9
2018-04-02T02:11:38.189Z,20.9
2018-04-02T02:12:29.069Z,20.9
2018-04-02T02:13:19.271Z,20.9
2018-04-02T02:14:09.053Z,20.9
2018-04-02T02:14:58.431Z,20.9
2018-04-02T02:15:49.453Z,20.9
2018-04-02T02:16:38.841Z,20.9
2018-04-02T02:17:29.079Z,20.9
2018-04-02T02:18:18.689Z,20.9
2018-04-02T02:19:09.183Z,20.9
2018-04-02T02:19:59.941Z,20.9
2018-04-02T02:20:50.413Z,20.9
2018-04-02T02:21:39.671Z,20.9
2018-04-02T02:22:30.149Z,20.9
2018-04-02T02:23:20.412Z,20.9
2018-04-02T02:24:09.488Z,20.9
2018-04-02T02:25:01.032Z,20.9
2018-04-02T02:25:50.798Z,20.9
2018-04-02T02:26:40.368Z,20.9
2018-04-02T02:27:30.078Z,20.9
2018-04-02T02:28:20.453Z,20.9
2018-04-02T02:29:09.575Z,20.9
2018-04-02T02:30:00.093Z,20.9
2018-04-02T02:30:50.774Z,20.9
2018-04-02T02:31:40.650Z,20.9
2018-04-02T02:32:30.777Z,20.9
2018-04-02T02:33:20.913Z,20.9
2018-04-02T02:34:11.225Z,20.9
2018-04-02T02:35:00.913Z,20.9
2018-04-02T02:35:50.654Z,20.9
2018-04-02T02:36:40.526Z,20.9
2018-04-02T02:37:31.445Z,20.9
2018-04-02T02:38:21.995Z,20.9
2018-04-02T02:39:10.979Z,20.9
2018-04-02T02:40:02.275Z,20.9
2018-04-02T02:40:51.612Z,20.9
2018-04-02T02:41:41.569Z,20.9
2018-04-02T02:42:31.423Z,20.9
2018-04-02T02:43:21.591Z,20.9
2018-04-02T02:44:11.614Z,20.9
2018-04-02T02:45:01.819Z,20.9
2018-04-02T02:45:51.952Z,20.9
2018-04-02T02:46:41.442Z,20.9
2018-04-02T02:47:32.944Z,20.9
2018-04-02T02:48:22.118Z,20.9
2018-04-02T02:49:12.031Z,20.9
2018-04-02T02:50:02.444Z,20.9
2018-04-02T02:50:53.477Z,20.9
2018-04-02T02:51:42.939Z,20.9
2018-04-02T02:52:33.643Z,20.9
2018-04-02T02:53:22.786Z,20.9
2018-04-02T02:54:13.418Z,20.9
2018-04-02T02:55:02.909Z,20.9
2018-04-02T02:55:53.529Z,20.9
2018-04-02T02:56:43.842Z,20.9
2018-04-02T02:57:33.928Z,20.9
2018-04-02T02:58:23.129Z,20.9
2018-04-02T02:59:13.788Z,20.9
2018-04-02T03:00:03.583Z,20.9
2018-04-02T03:00:53.889Z,20.9
2018-04-02T03:01:44.248Z,20.9
2018-04-02T03:02:33.808Z,20.9
2018-04-02T03:03:24.705Z,20.9
2018-04-02T03:04:13.553Z,20.9
2018-04-02T03:05:03.116Z,20.9
2018-04-02T03:05:52.543Z,20.9
2018-04-02T03:06:43.804Z,20.9
2018-04-02T03:07:33.912Z,20.9
2018-04-02T03:08:23.315Z,20.9
2018-04-02T03:09:13.596Z,20.9
2018-04-02T03:10:04.110Z,20.9
2018-04-02T03:10:51.796Z,20.9
2018-04-02T03:11:43.161Z,20.9
2018-04-02T03:12:33.222Z,20.9
2018-04-02T03:13:24.260Z,20.9
2018-04-02T03:14:13.429Z,20.9
2018-04-02T03:15:04.200Z,20.9
2018-04-02T03:15:54.055Z,20.9
2018-04-02T03:16:44.092Z,20.9
2018-04-02T03:17:33.760Z,20.9
2018-04-02T03:18:23.654Z,20.9
2018-04-02T03:19:13.522Z,20.9
2018-04-02T03:20:04.044Z,20.9
2018-04-02T03:20:54.005Z,21
2018-04-02T03:21:43.470Z,20.9
2018-04-02T03:22:35.052Z,20.9
2018-04-02T03:23:24.340Z,21
2018-04-02T03:24:15.592Z,20.9
2018-04-02T03:25:04.787Z,21
2018-04-02T03:25:54.840Z,21
2018-04-02T03:26:45.027Z,21
2018-04-02T03:27:35.047Z,21
2018-04-02T03:28:24.574Z,21
2018-04-02T03:29:15.007Z,21
2018-04-02T03:30:04.336Z,21
2018-04-02T03:30:54.595Z,21
2018-04-02T03:31:45.350Z,21
2018-04-02T03:32:35.357Z,21
2018-04-02T03:33:24.930Z,21
2018-04-02T03:34:14.622Z,21
2018-04-02T03:35:06.150Z,21
2018-04-02T03:35:55.925Z,21
2018-04-02T03:36:46.056Z,21
2018-04-02T03:37:35.691Z,21
2018-04-02T03:38:24.884Z,21
2018-04-02T03:39:15.513Z,21
2018-04-02T03:40:06.791Z,21
2018-04-02T03:40:56.083Z,21
2018-04-02T03:41:45.422Z,21
2018-04-02T03:42:35.481Z,21
2018-04-02T03:43:26.138Z,21
2018-04-02T03:44:16.503Z,21
2018-04-02T03:45:05.751Z,21
2018-04-02T03:45:55.761Z,21
2018-04-02T03:46:45.581Z,21
2018-04-02T03:47:35.852Z,21
2018-04-02T03:48:27.351Z,21
2018-04-02T03:49:16.821Z,21
2018-04-02T03:50:06.898Z,21
2018-04-02T03:50:57.231Z,21
2018-04-02T03:51:47.021Z,21
2018-04-02T03:52:37.658Z,21.1
2018-04-02T03:53:27.410Z,21
2018-04-02T03:54:17.765Z,21
2018-04-02T03:55:07.565Z,21.1
2018-04-02T03:55:57.602Z,21
2018-04-02T03:56:47.959Z,21
2018-04-02T03:57:38.352Z,21
2018-04-02T03:58:27.820Z,21
2018-04-02T03:59:17.003Z,21
2018-04-02T04:00:08.478Z,21
2018-04-02T04:00:57.383Z,21
2018-04-02T04:01:48.642Z,21
2018-04-02T04:02:37.830Z,21.1
2018-04-02T04:03:28.439Z,21
2018-04-02T04:04:18.200Z,21.1
2018-04-02T04:05:08.315Z,21.1
2018-04-02T04:05:57.467Z,21.1
2018-04-02T04:06:48.936Z,21.1
2018-04-02T04:07:37.612Z,21.1
2018-04-02T04:08:27.551Z,21.1
2018-04-02T04:09:17.419Z,21
2018-04-02T04:10:08.156Z,21.1
2018-04-02T04:10:58.031Z,21.1
2018-04-02T04:11:47.920Z,21.1
2018-04-02T04:12:38.567Z,21.1
2018-04-02T04:13:28.326Z,21.1
2018-04-02T04:14:18.681Z,21.1
2018-04-02T04:15:08.144Z,21.1
2018-04-02T04:15:57.915Z,21.1
2018-04-02T04:16:48.344Z,21.1
2018-04-02T04:17:38.910Z,21.1
2018-04-02T04:18:28.672Z,21.1
2018-04-02T04:19:18.742Z,21.1
2018-04-02T04:20:08.113Z,21.1
2018-04-02T04:20:58.304Z,21.1
2018-04-02T04:21:48.451Z,21.1
2018-04-02T04:22:38.498Z,21.1
2018-04-02T04:23:28.766Z,21.1
2018-04-02T04:24:18.736Z,21.1
2018-04-02T04:25:08.156Z,21.1
2018-04-02T04:25:58.261Z,21.1
2018-04-02T04:26:48.721Z,21.1
2018-04-02T04:27:40.006Z,21.1
2018-04-02T04:29:18.992Z,21.1
2018-04-02T04:30:09.517Z,21.1
2018-04-02T04:30:59.380Z,21.1
2018-04-02T04:31:50.119Z,21.1
2018-04-02T04:38:29.637Z,21.2
2018-04-02T04:39:19.384Z,21.2
2018-04-02T04:40:10.077Z,21.2
2018-04-02T04:40:59.928Z,21.3
2018-04-02T04:41:49.504Z,21.2
2018-04-02T04:42:40.227Z,21.2
2018-04-02T04:43:30.007Z,21.2
2018-04-02T04:44:20.415Z,21.3
2018-04-02T04:45:09.550Z,21.3
2018-04-02T04:46:01.069Z,21.3
2018-04-02T04:46:49.949Z,21.3
2018-04-02T04:47:40.714Z,21.3
2018-04-02T04:48:30.166Z,21.3
2018-04-02T04:49:20.957Z,21.3
2018-04-02T04:50:10.575Z,21.3
2018-04-02T04:51:01.025Z,21.3
2018-04-02T04:51:51.265Z,21.3
2018-04-02T04:52:40.757Z,21.3
2018-04-02T04:53:31.424Z,21.3
2018-04-02T04:54:20.866Z,21.3
2018-04-02T04:55:10.967Z,21.3
2018-04-02T04:56:01.126Z,21.3
2018-04-02T04:56:51.349Z,21.3
2018-04-02T04:57:41.039Z,21.3
2018-04-02T04:58:30.868Z,21.3
2018-04-02T04:59:21.635Z,21.3
2018-04-02T05:00:11.706Z,21.3
2018-04-02T05:01:01.773Z,21.3
2018-04-02T05:01:51.829Z,21.3
2018-04-02T05:02:41.575Z,21.3
2018-04-02T05:03:31.373Z,21.3
2018-04-02T05:04:21.841Z,21.3
2018-04-02T05:05:12.659Z,21.3
2018-04-02T05:06:02.080Z,21.3
2018-04-02T05:06:51.966Z,21.3
2018-04-02T05:07:42.849Z,21.3
2018-04-02T05:08:31.829Z,21.3
2018-04-02T05:09:23.218Z,21.3
2018-04-02T05:10:12.525Z,21.3
2018-04-02T05:11:01.996Z,21.3
2018-04-02T05:11:52.050Z,21.3
2018-04-02T05:12:43.050Z,21.3
2018-04-02T05:13:32.158Z,21.3
2018-04-02T05:14:22.653Z,21.3
2018-04-02T05:15:11.695Z,21.3
2018-04-02T05:16:02.725Z,21.4
2018-04-02T05:16:52.549Z,21.4
2018-04-02T05:17:42.211Z,21.3
2018-04-02T05:18:32.764Z,21.3
2018-04-02T05:19:22.990Z,21.4
2018-04-02T05:20:13.517Z,21.4
2018-04-02T05:21:03.215Z,21.4
2018-04-02T05:21:53.169Z,21.4
2018-04-02T05:22:43.085Z,21.4
2018-04-02T05:23:32.797Z,21.4
2018-04-02T05:24:23.072Z,21.4
2018-04-02T05:25:13.313Z,21.4
2018-04-02T05:26:02.849Z,21.4
2018-04-02T05:26:53.612Z,21.4
2018-04-02T05:27:44.784Z,21.4
2018-04-02T05:28:34.328Z,21.4
2018-04-02T05:29:24.647Z,21.4
2018-04-02T05:30:14.993Z,21.4
2018-04-02T05:31:04.729Z,21.4
2018-04-02T05:31:54.568Z,21.4
2018-04-02T05:32:44.637Z,21.4
2018-04-02T05:33:34.715Z,21.4
2018-04-02T05:34:25.360Z,21.4
2018-04-02T05:35:15.075Z,21.4
2018-04-02T05:36:05.181Z,21.4
2018-04-02T05:36:55.511Z,21.4
2018-04-02T05:37:43.848Z,21.4
2018-04-02T05:38:35.363Z,21.4
2018-04-02T05:39:24.328Z,21.4
2018-04-02T05:40:14.779Z,21.4
2018-04-02T05:41:03.475Z,21.4
2018-04-02T05:41:53.973Z,21.5
2018-04-02T05:42:44.469Z,21.4
2018-04-02T05:43:34.933Z,21.4
2018-04-02T05:44:25.759Z,21.5
2018-04-02T05:45:14.813Z,21.4
2018-04-02T05:46:04.951Z,21.5
2018-04-02T05:46:54.705Z,21.5
2018-04-02T05:47:44.359Z,21.5
2018-04-02T05:48:34.524Z,21.5
2018-04-02T05:49:24.749Z,21.5
2018-04-02T05:50:15.325Z,21.5
2018-04-02T05:51:04.492Z,21.5
2018-04-02T05:51:55.901Z,21.5
2018-04-02T05:52:44.797Z,21.5
2018-04-02T05:53:35.567Z,21.5
2018-04-02T05:54:24.814Z,21.5
2018-04-02T05:55:15.083Z,21.5
2018-04-02T05:56:05.382Z,21.5
2018-04-02T05:56:55.939Z,21.5
2018-04-02T05:57:45.070Z,21.6
2018-04-02T05:58:35.541Z,21.6
2018-04-02T05:59:26.856Z,21.6
2018-04-02T06:00:15.461Z,21.6
2018-04-02T06:01:05.631Z,21.6
2018-04-02T06:01:56.552Z,21.6
2018-04-02T06:02:46.426Z,21.6
2018-04-02T06:03:35.772Z,21.6
2018-04-02T06:04:26.545Z,21.6
2018-04-02T06:05:16.401Z,21.6
2018-04-02T06:06:06.301Z,21.6
2018-04-02T06:06:56.403Z,21.6
2018-04-02T06:07:46.266Z,21.6
2018-04-02T06:08:36.153Z,21.6
2018-04-02T06:09:26.241Z,21.6
2018-04-02T06:10:16.064Z,21.6
2018-04-02T06:11:06.922Z,21.6
2018-04-02T06:11:56.205Z,21.6
2018-04-02T06:12:45.972Z,21.6
2018-04-02T06:13:36.739Z,21.6
2018-04-02T06:14:26.782Z,21.7
2018-04-02T06:15:17.326Z,21.7
2018-04-02T06:16:06.620Z,21.7
2018-04-02T06:16:57.406Z,21.7
2018-04-02T06:17:46.710Z,21.7
2018-04-02T06:18:37.777Z,21.7
2018-04-02T06:19:26.996Z,21.7
2018-04-02T06:20:16.493Z,21.7
2018-04-02T06:21:07.650Z,21.8
2018-04-02T06:21:57.691Z,21.8
2018-04-02T06:22:46.779Z,21.8
2018-04-02T06:23:37.228Z,21.8
2018-04-02T06:24:28.673Z,21.8
2018-04-02T06:25:18.079Z,21.8
2018-04-02T06:26:07.473Z,21.8
2018-04-02T06:26:57.677Z,21.8
2018-04-02T06:27:48.213Z,21.8
2018-04-02T06:28:38.288Z,21.8
2018-04-02T06:29:28.072Z,21.8
2018-04-02T06:30:18.007Z,21.8
2018-04-02T06:31:08.777Z,21.8
2018-04-02T06:31:58.244Z,21.8
2018-04-02T06:32:47.310Z,21.8
2018-04-02T06:33:37.854Z,21.8
2018-04-02T06:34:28.609Z,21.8
2018-04-02T06:35:18.212Z,21.9
2018-04-02T06:36:08.326Z,21.8
2018-04-02T06:36:58.706Z,21.8
2018-04-02T06:37:49.432Z,21.8
2018-04-02T06:38:38.605Z,21.9
2018-04-02T06:39:28.410Z,21.8
2018-04-02T06:40:18.931Z,21.8
2018-04-02T06:41:07.816Z,21.9
2018-04-02T06:41:59.156Z,21.9
2018-04-02T06:42:48.764Z,21.9
2018-04-02T06:43:38.634Z,21.9
2018-04-02T06:44:29.052Z,21.9
2018-04-02T06:45:18.886Z,21.8
2018-04-02T06:46:09.451Z,21.8
2018-04-02T06:46:59.529Z,21.8
2018-04-02T06:47:49.284Z,21.9
2018-04-02T06:48:40.033Z,21.8
2018-04-02T06:49:29.394Z,21.8
2018-04-02T06:50:20.055Z,21.8
2018-04-02T06:51:09.736Z,21.8
2018-04-02T06:51:59.878Z,21.8
2018-04-02T06:52:50.266Z,21.8
2018-04-02T06:53:39.488Z,21.8
2018-04-02T06:54:30.168Z,21.8
2018-04-02T06:55:20.293Z,21.8
2018-04-02T06:56:09.678Z,21.8
2018-04-02T06:56:59.667Z,21.8
2018-04-02T06:57:50.206Z,21.8
2018-04-02T06:58:39.856Z,21.8
2018-04-02T06:59:30.157Z,21.8
2018-04-02T07:00:19.987Z,21.8
2018-04-02T07:01:10.322Z,21.8
2018-04-02T07:02:00.519Z,21.8
2018-04-02T07:02:50.028Z,21.8
2018-04-02T07:03:39.314Z,21.8
2018-04-02T07:04:30.630Z,21.8
2018-04-02T07:05:21.097Z,21.8
2018-04-02T07:06:10.399Z,21.8
2018-04-02T07:07:00.205Z,21.8
2018-04-02T07:07:50.765Z,21.8
2018-04-02T07:08:40.103Z,21.8
2018-04-02T07:09:30.539Z,21.8
2018-04-02T07:10:21.862Z,21.8
2018-04-02T07:11:10.574Z,21.8
2018-04-02T07:12:01.121Z,21.8
2018-04-02T07:12:50.974Z,21.8
2018-04-02T07:13:40.332Z,21.8
2018-04-02T07:14:31.380Z,21.8
2018-04-02T07:15:21.860Z,21.8
2018-04-02T07:16:10.929Z,21.8
2018-04-02T07:17:00.418Z,21.8
2018-04-02T07:17:52.045Z,21.8
2018-04-02T07:18:41.677Z,21.8
2018-04-02T07:19:31.654Z,21.8
2018-04-02T07:20:21.418Z,21.8
2018-04-02T07:21:11.501Z,21.8
2018-04-02T07:22:00.947Z,21.8
2018-04-02T07:22:51.484Z,21.8
2018-04-02T07:23:42.312Z,21.8
2018-04-02T07:24:32.289Z,21.8
2018-04-02T07:25:21.995Z,21.8
2018-04-02T07:26:11.519Z,21.8
2018-04-02T07:27:02.083Z,21.8
2018-04-02T07:27:51.198Z,21.8
2018-04-02T07:28:42.809Z,21.8
2018-04-02T07:29:32.701Z,21.8
2018-04-02T07:30:20.974Z,21.9
2018-04-02T07:31:12.116Z,21.9
2018-04-02T07:32:02.733Z,21.9
2018-04-02T07:32:52.991Z,21.9
2018-04-02T07:33:41.848Z,21.9
2018-04-02T07:34:32.144Z,21.9
2018-04-02T07:35:22.119Z,21.9
2018-04-02T07:36:12.799Z,21.9
2018-04-02T07:37:02.831Z,21.9
2018-04-02T07:37:52.588Z,21.9
2018-04-02T07:38:43.996Z,21.9
2018-04-02T07:39:33.878Z,21.9
2018-04-02T07:40:22.661Z,21.9
2018-04-02T07:41:12.521Z,21.9
2018-04-02T07:42:03.066Z,21.9
2018-04-02T07:42:53.288Z,21.9
2018-04-02T07:43:43.568Z,21.9
2018-04-02T07:44:33.674Z,21.9
2018-04-02T07:45:24.407Z,21.9
2018-04-02T07:46:13.091Z,21.9
2018-04-02T07:47:03.651Z,21.9
2018-04-02T07:47:53.090Z,21.9
2018-04-02T07:48:44.458Z,21.9
2018-04-02T07:49:34.280Z,21.9
2018-04-02T07:50:24.610Z,21.9
2018-04-02T07:51:13.741Z,21.9
2018-04-02T07:52:03.593Z,21.9
2018-04-02T07:52:53.950Z,21.9
2018-04-02T07:53:43.594Z,21.9
2018-04-02T07:54:34.358Z,21.9
2018-04-02T07:55:24.137Z,21.9
2018-04-02T07:56:13.837Z,21.9
2018-04-02T07:57:04.800Z,21.9
2018-04-02T07:57:54.283Z,21.9
2018-04-02T07:58:43.895Z,21.9
2018-04-02T07:59:34.397Z,21.9
2018-04-02T08:00:24.749Z,21.9
2018-04-02T08:01:14.572Z,21.9
2018-04-02T08:02:04.429Z,21.9
2018-04-02T08:02:55.395Z,21.9
2018-04-02T08:03:44.922Z,21.9
2018-04-02T08:04:34.409Z,21.9
2018-04-02T08:05:24.855Z,21.9
2018-04-02T08:06:14.694Z,21.9
2018-04-02T08:07:05.114Z,21.9
2018-04-02T08:07:55.105Z,21.9
2018-04-02T08:08:45.561Z,21.9
2018-04-02T08:09:35.046Z,21.9
2018-04-02T08:10:25.290Z,21.9
2018-04-02T08:11:16.501Z,21.9
2018-04-02T08:12:05.468Z,21.9
2018-04-02T08:12:54.919Z,21.9
2018-04-02T08:13:44.997Z,21.9
2018-04-02T08:14:35.788Z,21.9
2018-04-02T08:15:25.776Z,21.9
2018-04-02T08:16:15.833Z,21.9
2018-04-02T08:17:04.822Z,21.9
2018-04-02T08:17:56.437Z,21.9
2018-04-02T08:18:45.494Z,21.9
2018-04-02T08:19:36.111Z,21.9
2018-04-02T08:20:26.711Z,21.9
2018-04-02T08:21:16.302Z,21.9
2018-04-02T08:22:06.529Z,21.9
2018-04-02T08:22:56.986Z,21.9
2018-04-02T08:23:46.266Z,21.9
2018-04-02T08:24:35.945Z,21.9
2018-04-02T08:25:26.265Z,21.9
2018-04-02T08:26:16.681Z,21.9
2018-04-02T08:27:06.727Z,21.9
2018-04-02T08:27:56.307Z,21.9
2018-04-02T08:28:46.117Z,21.9
2018-04-02T08:29:37.095Z,21.9
2018-04-02T08:30:26.281Z,21.9
2018-04-02T08:31:16.840Z,21.9
2018-04-02T08:32:06.672Z,21.9
2018-04-02T08:32:57.491Z,21.9
2018-04-02T08:33:47.498Z,21.9
2018-04-02T08:34:35.782Z,21.9
2018-04-02T08:35:26.946Z,21.9
2018-04-02T08:36:17.410Z,21.9
2018-04-02T08:37:07.101Z,21.9
2018-04-02T08:37:58.051Z,21.9
2018-04-02T08:38:47.397Z,21.9
2018-04-02T08:39:37.456Z,21.9
2018-04-02T08:40:27.793Z,21.9
2018-04-02T08:41:17.780Z,21.9
2018-04-02T08:42:07.613Z,21.9
2018-04-02T08:42:57.401Z,21.9
2018-04-02T08:43:47.250Z,21.9
2018-04-02T08:44:37.087Z,21.9
2018-04-02T08:45:27.848Z,21.9
2018-04-02T08:46:18.930Z,21.9
2018-04-02T08:47:07.546Z,21.8
2018-04-02T08:47:57.941Z,21.8
2018-04-02T08:48:48.300Z,21.8
2018-04-02T08:49:38.363Z,21.8
2018-04-02T08:50:28.033Z,21.8
2018-04-02T08:51:18.332Z,21.8
2018-04-02T08:52:07.554Z,21.8
2018-04-02T08:52:58.823Z,21.8
2018-04-02T08:53:48.363Z,21.9
2018-04-02T08:54:37.975Z,21.8
2018-04-02T08:55:28.196Z,21.8
2018-04-02T08:56:18.676Z,21.8
2018-04-02T08:57:09.395Z,21.8
2018-04-02T08:57:58.915Z,21.8
2018-04-02T08:58:48.642Z,21.8
2018-04-02T08:59:39.403Z,21.8
2018-04-02T09:00:28.392Z,21.8
2018-04-02T09:01:19.205Z,21.8
2018-04-02T09:02:09.058Z,21.8
2018-04-02T09:02:58.567Z,21.8
2018-04-02T09:03:48.909Z,21.8
2018-04-02T09:04:39.157Z,21.8
2018-04-02T09:05:29.460Z,21.8
2018-04-02T09:06:19.627Z,21.8
2018-04-02T09:07:09.609Z,21.8
2018-04-02T09:08:00.179Z,21.8
2018-04-02T09:08:49.687Z,21.8
2018-04-02T09:09:39.133Z,21.8
2018-04-02T09:10:29.790Z,21.8
2018-04-02T09:11:19.254Z,21.8
2018-04-02T09:12:10.234Z,21.8
2018-04-02T09:13:00.184Z,21.8
2018-04-02T09:13:50.044Z,21.8
2018-04-02T09:14:38.540Z,21.8
2018-04-02T09:15:30.837Z,21.8
2018-04-02T09:16:20.146Z,21.8
2018-04-02T09:17:09.897Z,21.8
2018-04-02T09:18:00.468Z,21.8
2018-04-02T09:18:50.277Z,21.8
2018-04-02T09:19:40.387Z,21.8
2018-04-02T09:20:30.631Z,21.8
2018-04-02T09:21:20.949Z,21.8
2018-04-02T09:22:10.182Z,21.8
2018-04-02T09:23:00.353Z,21.8
2018-04-02T09:23:50.659Z,21.8
2018-04-02T09:24:40.333Z,21.8
2018-04-02T09:25:30.529Z,21.8
2018-04-02T09:26:22.188Z,21.8
2018-04-02T09:27:10.134Z,21.8
2018-04-02T09:27:59.338Z,21.8
2018-04-02T09:28:49.571Z,21.8
2018-04-02T09:29:41.020Z,21.8
2018-04-02T09:30:30.754Z,21.8
2018-04-02T09:31:21.166Z,21.8
2018-04-02T09:32:11.008Z,21.8
2018-04-02T09:33:01.579Z,21.8
2018-04-02T09:33:51.586Z,21.8
2018-04-02T09:34:42.279Z,21.8
2018-04-02T09:35:31.332Z,21.8
2018-04-02T09:36:21.575Z,21.7
2018-04-02T09:37:11.865Z,21.7
2018-04-02T09:38:01.889Z,21.7
2018-04-02T09:38:52.260Z,21.7
2018-04-02T09:39:41.741Z,21.7
2018-04-02T09:40:31.974Z,21.7
2018-04-02T09:41:21.676Z,21.7
2018-04-02T09:42:12.462Z,21.7
2018-04-02T09:43:03.049Z,21.7
2018-04-02T09:43:53.117Z,21.7
2018-04-02T09:44:43.192Z,21.7
2018-04-02T09:45:32.735Z,21.7
2018-04-02T09:46:22.982Z,21.7
2018-04-02T09:47:13.632Z,21.7
2018-04-02T09:48:03.724Z,21.7
2018-04-02T09:48:53.761Z,21.7
2018-04-02T09:49:43.541Z,21.7
2018-04-02T09:50:33.579Z,21.7
2018-04-02T09:51:23.664Z,21.7
2018-04-02T09:52:13.992Z,21.7
2018-04-02T09:53:03.772Z,21.7
2018-04-02T09:53:53.841Z,21.7
2018-04-02T09:54:44.176Z,21.7
2018-04-02T09:55:33.667Z,21.7
2018-04-02T09:56:24.027Z,21.7
2018-04-02T09:57:14.382Z,21.7
2018-04-02T09:58:04.136Z,21.7
2018-04-02T09:58:54.479Z,21.7
2018-04-02T09:59:44.028Z,21.6
2018-04-02T10:00:34.651Z,21.7
2018-04-02T10:01:24.637Z,21.7
2018-04-02T10:02:14.461Z,21.7
2018-04-02T10:03:03.931Z,21.6
2018-04-02T10:03:54.284Z,21.7
2018-04-02T10:04:46.872Z,21.6
2018-04-02T10:05:34.386Z,21.7
2018-04-02T10:06:25.626Z,21.6
2018-04-02T10:07:14.819Z,21.7
2018-04-02T10:08:04.896Z,21.7
2018-04-02T10:08:54.923Z,21.6
2018-04-02T10:09:44.505Z,21.6
2018-04-02T10:10:34.819Z,21.6
2018-04-02T10:11:25.381Z,21.6
2018-04-02T10:12:14.594Z,21.6
2018-04-02T10:13:04.962Z,21.6
2018-04-02T10:13:55.360Z,21.6
2018-04-02T10:14:45.401Z,21.6
2018-04-02T10:15:35.402Z,21.6
2018-04-02T10:16:25.516Z,21.6
2018-04-02T10:17:15.253Z,21.6
2018-04-02T10:18:05.644Z,21.6
2018-04-02T10:18:55.653Z,21.6
2018-04-02T10:19:45.168Z,21.6
2018-04-02T10:20:34.848Z,21.6
2018-04-02T10:21:25.090Z,21.6
2018-04-02T10:22:14.834Z,21.6
2018-04-02T10:23:05.176Z,21.7
2018-04-02T10:23:55.856Z,21.6
2018-04-02T10:24:45.618Z,21.6
2018-04-02T10:25:35.341Z,21.7
2018-04-02T10:26:25.107Z,21.7
2018-04-02T10:27:15.110Z,21.6
2018-04-02T10:28:05.352Z,21.6
2018-04-02T10:28:55.164Z,21.6
2018-04-02T10:29:46.076Z,21.6
2018-04-02T10:30:34.697Z,21.6
2018-04-02T10:31:26.168Z,21.6
2018-04-02T10:32:15.147Z,21.6
2018-04-02T10:33:06.043Z,21.6
2018-04-02T10:33:56.241Z,21.6
2018-04-02T10:34:46.366Z,21.6
2018-04-02T10:35:35.247Z,21.6
2018-04-02T10:36:24.837Z,21.6
2018-04-02T10:37:15.768Z,21.6
2018-04-02T10:38:05.451Z,21.6
2018-04-02T10:38:56.102Z,21.6
2018-04-02T10:39:45.956Z,21.6
2018-04-02T10:40:36.336Z,21.6
2018-04-02T10:41:26.445Z,21.6
2018-04-02T10:42:16.046Z,21.6
2018-04-02T10:43:06.627Z,21.6
2018-04-02T10:43:56.274Z,21.6
2018-04-02T10:44:46.522Z,21.6
2018-04-02T10:45:35.501Z,21.6
2018-04-02T10:46:27.033Z,21.6
2018-04-02T10:47:16.318Z,21.6
2018-04-02T10:48:07.281Z,21.6
2018-04-02T10:48:56.898Z,21.6
2018-04-02T10:49:46.112Z,21.6
2018-04-02T10:50:36.561Z,21.6
2018-04-02T10:51:27.162Z,21.6
2018-04-02T10:52:17.646Z,21.6
2018-04-02T10:53:07.144Z,21.6
2018-04-02T10:53:57.406Z,21.6
2018-04-02T10:54:47.475Z,21.6
2018-04-02T10:55:36.383Z,21.6
2018-04-02T10:56:27.675Z,21.6
2018-04-02T10:57:16.765Z,21.6
2018-04-02T10:58:06.331Z,21.6
2018-04-02T10:58:58.041Z,21.6
2018-04-02T10:59:48.597Z,21.6
2018-04-02T11:00:36.683Z,21.6
2018-04-02T11:01:27.860Z,21.6
2018-04-02T11:02:18.030Z,21.6
2018-04-02T11:03:08.190Z,21.6
2018-04-02T11:03:58.458Z,21.6
2018-04-02T11:04:48.603Z,21.6
2018-04-02T11:05:38.564Z,21.6
2018-04-02T11:06:27.762Z,21.6
2018-04-02T11:07:17.989Z,21.6
2018-04-02T11:08:08.533Z,21.6
2018-04-02T11:08:57.760Z,21.6
2018-04-02T11:09:48.089Z,21.6
2018-04-02T11:10:38.920Z,21.6
2018-04-02T11:11:29.082Z,21.6
2018-04-02T11:12:17.990Z,21.6
2018-04-02T11:13:08.937Z,21.6
2018-04-02T11:13:58.267Z,21.6
2018-04-02T11:14:48.269Z,21.6
2018-04-02T11:15:38.455Z,21.6